sensor_id;sensor_type;location;lat;lon;timestamp;pressure;altitude;pressure_sealevel;temperature;humidity
80139;BME280;69467;59.842;17.604;2023-11-19T00:00:46;101661.91;;;-6.66;100.00
80139;BME280;69467;59.842;17.604;2023-11-19T00:03:11;101652.72;;;-6.61;100.00
80139;BME280;69467;59.842;17.604;2023-11-19T00:05:38;101655.13;;;-6.58;100.00
80139;BME280;69467;59.842;17.604;2023-11-19T00:08:03;101654.97;;;-6.57;100.00
80139;BME280;69467;59.842;17.604;2023-11-19T00:10:29;101649.09;;;-6.72;100.00
80139;BME280;69467;59.842;17.604;2023-11-19T00:12:55;101641.88;;;-6.81;100.00
80139;BME280;69467;59.842;17.604;2023-11-19T00:15:22;101646.00;;;-6.88;100.00
80139;BME280;69467;59.842;17.604;2023-11-19T00:17:49;101639.97;;;-7.02;100.00
80139;BME280;69467;59.842;17.604;2023-11-19T00:20:15;101644.09;;;-7.09;100.00
80139;BME280;69467;59.842;17.604;2023-11-19T00:22:43;101639.13;;;-7.14;100.00
80139;BME280;69467;59.842;17.604;2023-11-19T00:25:09;101631.41;;;-7.05;100.00
80139;BME280;69467;59.842;17.604;2023-11-19T00:27:35;101631.75;;;-6.99;100.00
80139;BME280;69467;59.842;17.604;2023-11-19T00:30:00;101623.66;;;-7.08;100.00
80139;BME280;69467;59.842;17.604;2023-11-19T00:32:25;101624.00;;;-7.02;100.00
80139;BME280;69467;59.842;17.604;2023-11-19T00:34:51;101611.88;;;-6.94;100.00
80139;BME280;69467;59.842;17.604;2023-11-19T00:37:16;101603.41;;;-6.88;100.00
80139;BME280;69467;59.842;17.604;2023-11-19T00:39:42;101603.63;;;-6.80;100.00
80139;BME280;69467;59.842;17.604;2023-11-19T00:42:08;101605.78;;;-6.74;100.00
80139;BME280;69467;59.842;17.604;2023-11-19T00:44:35;101599.94;;;-6.68;100.00
80139;BME280;69467;59.842;17.604;2023-11-19T00:47:00;101602.94;;;-6.61;100.00
80139;BME280;69467;59.842;17.604;2023-11-19T00:49:25;101598.91;;;-6.55;100.00
80139;BME280;69467;59.842;17.604;2023-11-19T00:51:51;101592.34;;;-6.51;100.00
80139;BME280;69467;59.842;17.604;2023-11-19T00:54:16;101589.31;;;-6.47;100.00
80139;BME280;69467;59.842;17.604;2023-11-19T00:56:42;101586.38;;;-6.43;100.00
80139;BME280;69467;59.842;17.604;2023-11-19T00:59:07;101582.59;;;-6.41;100.00
80139;BME280;69467;59.842;17.604;2023-11-19T01:01:32;101594.81;;;-6.38;100.00
80139;BME280;69467;59.842;17.604;2023-11-19T01:03:58;101598.94;;;-6.34;100.00
80139;BME280;69467;59.842;17.604;2023-11-19T01:06:27;101594.44;;;-6.34;100.00
80139;BME280;69467;59.842;17.604;2023-11-19T01:08:53;101585.03;;;-6.38;100.00
80139;BME280;69467;59.842;17.604;2023-11-19T01:11:21;101586.72;;;-6.37;100.00
80139;BME280;69467;59.842;17.604;2023-11-19T01:13:47;101585.59;;;-6.34;100.00
80139;BME280;69467;59.842;17.604;2023-11-19T01:16:13;101578.44;;;-6.34;100.00
80139;BME280;69467;59.842;17.604;2023-11-19T01:18:38;101575.53;;;-6.31;100.00
80139;BME280;69467;59.842;17.604;2023-11-19T01:21:04;101580.72;;;-6.29;100.00
80139;BME280;69467;59.842;17.604;2023-11-19T01:23:29;101574.56;;;-6.29;100.00
80139;BME280;69467;59.842;17.604;2023-11-19T01:25:54;101584.81;;;-6.25;100.00
80139;BME280;69467;59.842;17.604;2023-11-19T01:28:20;101576.94;;;-6.26;100.00
80139;BME280;69467;59.842;17.604;2023-11-19T01:30:45;101572.59;;;-6.27;100.00
80139;BME280;69467;59.842;17.604;2023-11-19T01:33:10;101565.31;;;-6.25;100.00
80139;BME280;69467;59.842;17.604;2023-11-19T01:35:35;101566.16;;;-6.25;100.00
80139;BME280;69467;59.842;17.604;2023-11-19T01:38:00;101570.25;;;-6.21;100.00
80139;BME280;69467;59.842;17.604;2023-11-19T01:40:26;101562.84;;;-6.17;100.00
80139;BME280;69467;59.842;17.604;2023-11-19T01:42:51;101566.09;;;-6.13;100.00
80139;BME280;69467;59.842;17.604;2023-11-19T01:45:26;101549.00;;;-6.11;100.00
80139;BME280;69467;59.842;17.604;2023-11-19T01:47:53;101546.03;;;-6.08;100.00
80139;BME280;69467;59.842;17.604;2023-11-19T01:50:18;101545.91;;;-6.06;100.00
80139;BME280;69467;59.842;17.604;2023-11-19T01:52:44;101542.28;;;-6.05;100.00
80139;BME280;69467;59.842;17.604;2023-11-19T01:55:10;101539.59;;;-6.05;100.00
80139;BME280;69467;59.842;17.604;2023-11-19T01:57:36;101535.97;;;-6.04;100.00
80139;BME280;69467;59.842;17.604;2023-11-19T02:00:03;101540.31;;;-6.03;100.00
80139;BME280;69467;59.842;17.604;2023-11-19T02:02:28;101536.53;;;-6.01;100.00
80139;BME280;69467;59.842;17.604;2023-11-19T02:04:54;101528.53;;;-6.01;100.00
80139;BME280;69467;59.842;17.604;2023-11-19T02:07:21;101530.06;;;-5.98;100.00
80139;BME280;69467;59.842;17.604;2023-11-19T02:09:46;101527.41;;;-5.98;100.00
80139;BME280;69467;59.842;17.604;2023-11-19T02:12:12;101528.13;;;-5.96;100.00
80139;BME280;69467;59.842;17.604;2023-11-19T02:14:37;101527.16;;;-5.95;100.00
80139;BME280;69467;59.842;17.604;2023-11-19T02:17:02;101527.25;;;-5.96;100.00
80139;BME280;69467;59.842;17.604;2023-11-19T02:19:27;101523.63;;;-5.95;100.00
80139;BME280;69467;59.842;17.604;2023-11-19T02:21:53;101514.22;;;-6.00;100.00
80139;BME280;69467;59.842;17.604;2023-11-19T02:24:21;101512.53;;;-6.01;100.00
80139;BME280;69467;59.842;17.604;2023-11-19T02:26:56;101512.53;;;-6.01;100.00
80139;BME280;69467;59.842;17.604;2023-11-19T02:29:24;101512.53;;;-6.01;100.00
80139;BME280;69467;59.842;17.604;2023-11-19T02:31:49;101509.88;;;-6.01;100.00
80139;BME280;69467;59.842;17.604;2023-11-19T02:34:15;101499.22;;;-6.01;100.00
80139;BME280;69467;59.842;17.604;2023-11-19T02:36:41;101493.88;;;-6.01;100.00
80139;BME280;69467;59.842;17.604;2023-11-19T02:39:07;101489.59;;;-6.13;100.00
80139;BME280;69467;59.842;17.604;2023-11-19T02:41:35;101487.78;;;-6.12;100.00
80139;BME280;69467;59.842;17.604;2023-11-19T02:44:00;101482.19;;;-6.09;100.00
80139;BME280;69467;59.842;17.604;2023-11-19T02:46:26;101488.94;;;-6.05;100.00
80139;BME280;69467;59.842;17.604;2023-11-19T02:48:51;101477.16;;;-6.03;100.00
80139;BME280;69467;59.842;17.604;2023-11-19T02:51:16;101478.00;;;-6.02;100.00
80139;BME280;69467;59.842;17.604;2023-11-19T02:53:43;101476.72;;;-5.98;100.00
80139;BME280;69467;59.842;17.604;2023-11-19T02:56:09;101478.28;;;-5.95;100.00
80139;BME280;69467;59.842;17.604;2023-11-19T02:58:45;101465.25;;;-5.99;100.00
80139;BME280;69467;59.842;17.604;2023-11-19T03:01:11;101469.56;;;-5.98;100.00
80139;BME280;69467;59.842;17.604;2023-11-19T03:03:48;101458.38;;;-6.01;100.00
80139;BME280;69467;59.842;17.604;2023-11-19T03:06:19;101461.84;;;-6.10;100.00
80139;BME280;69467;59.842;17.604;2023-11-19T03:08:44;101461.00;;;-6.11;100.00
80139;BME280;69467;59.842;17.604;2023-11-19T03:11:09;101458.34;;;-6.11;100.00
80139;BME280;69467;59.842;17.604;2023-11-19T03:13:34;101448.75;;;-6.23;100.00
80139;BME280;69467;59.842;17.604;2023-11-19T03:16:00;101437.47;;;-6.37;100.00
80139;BME280;69467;59.842;17.604;2023-11-19T03:18:25;101440.94;;;-6.36;100.00
80139;BME280;69467;59.842;17.604;2023-11-19T03:20:50;101437.91;;;-6.32;100.00
80139;BME280;69467;59.842;17.604;2023-11-19T03:23:17;101439.88;;;-6.24;100.00
80139;BME280;69467;59.842;17.604;2023-11-19T03:25:42;101427.13;;;-6.20;100.00
80139;BME280;69467;59.842;17.604;2023-11-19T03:28:08;101425.59;;;-6.23;100.00
80139;BME280;69467;59.842;17.604;2023-11-19T03:30:34;101415.63;;;-6.21;100.00
80139;BME280;69467;59.842;17.604;2023-11-19T03:32:59;101412.53;;;-6.16;100.00
80139;BME280;69467;59.842;17.604;2023-11-19T03:35:27;101406.66;;;-6.10;100.00
80139;BME280;69467;59.842;17.604;2023-11-19T03:37:53;101394.19;;;-6.09;100.00
80139;BME280;69467;59.842;17.604;2023-11-19T03:40:18;101396.56;;;-6.06;100.00
80139;BME280;69467;59.842;17.604;2023-11-19T03:42:44;101400.09;;;-6.06;100.00
80139;BME280;69467;59.842;17.604;2023-11-19T03:45:09;101401.06;;;-6.07;100.00
80139;BME280;69467;59.842;17.604;2023-11-19T03:47:35;101397.69;;;-6.09;100.00
80139;BME280;69467;59.842;17.604;2023-11-19T03:50:00;101392.34;;;-6.09;100.00
80139;BME280;69467;59.842;17.604;2023-11-19T03:52:26;101384.34;;;-6.09;100.00
80139;BME280;69467;59.842;17.604;2023-11-19T03:54:54;101388.72;;;-6.08;100.00
80139;BME280;69467;59.842;17.604;2023-11-19T03:57:20;101384.50;;;-6.10;100.00
80139;BME280;69467;59.842;17.604;2023-11-19T03:59:45;101389.69;;;-6.09;100.00
80139;BME280;69467;59.842;17.604;2023-11-19T04:02:10;101387.03;;;-6.09;100.00
80139;BME280;69467;59.842;17.604;2023-11-19T04:04:36;101380.72;;;-6.08;100.00
80139;BME280;69467;59.842;17.604;2023-11-19T04:07:02;101381.69;;;-6.09;100.00
80139;BME280;69467;59.842;17.604;2023-11-19T04:09:28;101374.66;;;-6.10;100.00
80139;BME280;69467;59.842;17.604;2023-11-19T04:11:53;101372.44;;;-6.15;100.00
80139;BME280;69467;59.842;17.604;2023-11-19T04:14:19;101374.38;;;-6.17;100.00
80139;BME280;69467;59.842;17.604;2023-11-19T04:16:44;101372.44;;;-6.15;100.00
80139;BME280;69467;59.842;17.604;2023-11-19T04:19:10;101359.22;;;-6.16;100.00
80139;BME280;69467;59.842;17.604;2023-11-19T04:21:35;101359.34;;;-6.18;100.00
80139;BME280;69467;59.842;17.604;2023-11-19T04:24:00;101356.84;;;-6.19;100.00
80139;BME280;69467;59.842;17.604;2023-11-19T04:26:26;101356.13;;;-6.21;100.00
80139;BME280;69467;59.842;17.604;2023-11-19T04:28:51;101350.53;;;-6.18;100.00
80139;BME280;69467;59.842;17.604;2023-11-19T04:31:16;101349.09;;;-6.22;100.00
80139;BME280;69467;59.842;17.604;2023-11-19T04:33:42;101338.19;;;-6.19;100.00
80139;BME280;69467;59.842;17.604;2023-11-19T04:36:07;101340.69;;;-6.18;100.00
80139;BME280;69467;59.842;17.604;2023-11-19T04:38:33;101331.88;;;-6.18;100.00
80139;BME280;69467;59.842;17.604;2023-11-19T04:40:58;101337.47;;;-6.21;100.00
80139;BME280;69467;59.842;17.604;2023-11-19T04:43:23;101331.16;;;-6.20;100.00
80139;BME280;69467;59.842;17.604;2023-11-19T04:45:48;101331.88;;;-6.18;100.00
80139;BME280;69467;59.842;17.604;2023-11-19T04:48:14;101327.50;;;-6.19;100.00
80139;BME280;69467;59.842;17.604;2023-11-19T04:50:39;101329.19;;;-6.18;100.00
80139;BME280;69467;59.842;17.604;2023-11-19T04:53:04;101328.22;;;-6.17;100.00
80139;BME280;69467;59.842;17.604;2023-11-19T04:55:30;101317.56;;;-6.17;100.00
80139;BME280;69467;59.842;17.604;2023-11-19T04:57:55;101318.53;;;-6.18;100.00
80139;BME280;69467;59.842;17.604;2023-11-19T05:00:20;101318.69;;;-6.20;100.00
80139;BME280;69467;59.842;17.604;2023-11-19T05:02:46;101309.00;;;-6.21;100.00
80139;BME280;69467;59.842;17.604;2023-11-19T05:05:11;101313.88;;;-6.16;100.00
80139;BME280;69467;59.842;17.604;2023-11-19T05:07:37;101310.13;;;-6.13;100.00
80139;BME280;69467;59.842;17.604;2023-11-19T05:10:03;101306.34;;;-6.11;100.00
80139;BME280;69467;59.842;17.604;2023-11-19T05:12:29;101305.34;;;-6.10;100.00
80139;BME280;69467;59.842;17.604;2023-11-19T05:14:54;101295.53;;;-6.09;100.00
80139;BME280;69467;59.842;17.604;2023-11-19T05:17:20;101290.59;;;-6.14;100.00
80139;BME280;69467;59.842;17.604;2023-11-19T05:19:45;101291.47;;;-6.23;100.00
80139;BME280;69467;59.842;17.604;2023-11-19T05:22:11;101291.16;;;-6.20;100.00
80139;BME280;69467;59.842;17.604;2023-11-19T05:24:37;101290.03;;;-6.18;100.00
80139;BME280;69467;59.842;17.604;2023-11-19T05:27:04;101288.09;;;-6.16;100.00
80139;BME280;69467;59.842;17.604;2023-11-19T05:29:29;101285.56;;;-6.17;100.00
80139;BME280;69467;59.842;17.604;2023-11-19T05:31:55;101280.22;;;-6.27;100.00
80139;BME280;69467;59.842;17.604;2023-11-19T05:34:20;101273.91;;;-6.36;100.00
80139;BME280;69467;59.842;17.604;2023-11-19T05:36:46;101281.47;;;-6.31;100.00
80139;BME280;69467;59.842;17.604;2023-11-19T05:39:11;101281.06;;;-6.26;100.00
80139;BME280;69467;59.842;17.604;2023-11-19T05:41:36;101270.13;;;-6.23;100.00
80139;BME280;69467;59.842;17.604;2023-11-19T05:44:01;101277.56;;;-6.27;100.00
80139;BME280;69467;59.842;17.604;2023-11-19T05:46:27;101269.69;;;-6.28;100.00
80139;BME280;69467;59.842;17.604;2023-11-19T05:48:52;101269.97;;;-6.32;100.00
80139;BME280;69467;59.842;17.604;2023-11-19T05:51:17;101272.06;;;-6.35;100.00
80139;BME280;69467;59.842;17.604;2023-11-19T05:53:43;101274.59;;;-6.34;100.00
80139;BME280;69467;59.842;17.604;2023-11-19T05:56:09;101264.75;;;-6.43;100.00
80139;BME280;69467;59.842;17.604;2023-11-19T05:58:34;101270.50;;;-6.38;100.00
80139;BME280;69467;59.842;17.604;2023-11-19T06:01:00;101264.06;;;-6.35;100.00
80139;BME280;69467;59.842;17.604;2023-11-19T06:03:26;101261.25;;;-6.34;100.00
80139;BME280;69467;59.842;17.604;2023-11-19T06:05:51;101260.69;;;-6.27;100.00
80139;BME280;69467;59.842;17.604;2023-11-19T06:08:17;101253.56;;;-6.27;100.00
80139;BME280;69467;59.842;17.604;2023-11-19T06:10:42;101259.31;;;-6.22;100.00
80139;BME280;69467;59.842;17.604;2023-11-19T06:13:08;101256.09;;;-6.25;100.00
80139;BME280;69467;59.842;17.604;2023-11-19T06:15:35;101260.44;;;-6.24;100.00
80139;BME280;69467;59.842;17.604;2023-11-19T06:18:01;101260.16;;;-6.21;100.00
80139;BME280;69467;59.842;17.604;2023-11-19T06:20:28;101254.81;;;-6.21;100.00
80139;BME280;69467;59.842;17.604;2023-11-19T06:22:54;101259.88;;;-6.18;100.00
80139;BME280;69467;59.842;17.604;2023-11-19T06:25:19;101249.47;;;-6.21;100.00
80139;BME280;69467;59.842;17.604;2023-11-19T06:27:44;101252.88;;;-6.19;100.00
80139;BME280;69467;59.842;17.604;2023-11-19T06:30:10;101243.91;;;-6.18;100.00
80139;BME280;69467;59.842;17.604;2023-11-19T06:32:35;101241.78;;;-6.15;100.00
80139;BME280;69467;59.842;17.604;2023-11-19T06:35:01;101241.34;;;-6.10;100.00
80139;BME280;69467;59.842;17.604;2023-11-19T06:37:26;101241.09;;;-6.07;100.00
80139;BME280;69467;59.842;17.604;2023-11-19T06:39:52;101241.09;;;-6.07;100.00
80139;BME280;69467;59.842;17.604;2023-11-19T06:42:17;101241.09;;;-6.07;100.00
80139;BME280;69467;59.842;17.604;2023-11-19T06:44:42;101252.56;;;-6.06;100.00
80139;BME280;69467;59.842;17.604;2023-11-19T06:47:08;101244.47;;;-6.05;100.00
80139;BME280;69467;59.842;17.604;2023-11-19T06:49:33;101247.13;;;-6.05;100.00
80139;BME280;69467;59.842;17.604;2023-11-19T06:51:58;101246.13;;;-6.04;100.00
80139;BME280;69467;59.842;17.604;2023-11-19T06:54:24;101248.53;;;-6.01;100.00
80139;BME280;69467;59.842;17.604;2023-11-19T06:56:49;101245.84;;;-6.01;100.00
80139;BME280;69467;59.842;17.604;2023-11-19T06:59:14;101245.84;;;-6.01;100.00
80139;BME280;69467;59.842;17.604;2023-11-19T07:01:39;101248.53;;;-6.01;100.00
80139;BME280;69467;59.842;17.604;2023-11-19T07:04:10;101244.88;;;-6.00;100.00
80139;BME280;69467;59.842;17.604;2023-11-19T07:06:35;101243.91;;;-5.99;100.00
80139;BME280;69467;59.842;17.604;2023-11-19T07:09:01;101247.81;;;-6.03;100.00
80139;BME280;69467;59.842;17.604;2023-11-19T07:11:41;101244.03;;;-6.00;100.00
80139;BME280;69467;59.842;17.604;2023-11-19T07:14:07;101237.53;;;-5.98;100.00
80139;BME280;69467;59.842;17.604;2023-11-19T07:16:33;101240.75;;;-5.94;100.00
80139;BME280;69467;59.842;17.604;2023-11-19T07:19:07;101237.13;;;-5.93;100.00
80139;BME280;69467;59.842;17.604;2023-11-19T07:21:32;101234.31;;;-5.91;100.00
80139;BME280;69467;59.842;17.604;2023-11-19T07:23:58;101234.19;;;-5.90;100.00
80139;BME280;69467;59.842;17.604;2023-11-19T07:26:24;101228.69;;;-5.88;100.00
80139;BME280;69467;59.842;17.604;2023-11-19T07:28:49;101223.09;;;-5.95;100.00
80139;BME280;69467;59.842;17.604;2023-11-19T07:31:15;101227.19;;;-6.01;100.00
80139;BME280;69467;59.842;17.604;2023-11-19T07:33:40;101226.84;;;-5.98;100.00
80139;BME280;69467;59.842;17.604;2023-11-19T07:36:09;101231.81;;;-6.03;100.00
80139;BME280;69467;59.842;17.604;2023-11-19T07:38:35;101221.72;;;-5.99;100.00
80139;BME280;69467;59.842;17.604;2023-11-19T07:41:00;101219.56;;;-5.95;100.00
80139;BME280;69467;59.842;17.604;2023-11-19T07:43:26;101223.78;;;-5.93;100.00
80139;BME280;69467;59.842;17.604;2023-11-19T07:45:51;101222.53;;;-5.89;100.00
80139;BME280;69467;59.842;17.604;2023-11-19T07:48:16;101216.19;;;-5.88;100.00
80139;BME280;69467;59.842;17.604;2023-11-19T07:50:43;101217.75;;;-5.85;100.00
80139;BME280;69467;59.842;17.604;2023-11-19T07:53:08;101228.13;;;-5.82;100.00
80139;BME280;69467;59.842;17.604;2023-11-19T07:55:34;101217.31;;;-5.80;100.00
80139;BME280;69467;59.842;17.604;2023-11-19T07:57:59;101226.16;;;-5.80;100.00
80139;BME280;69467;59.842;17.604;2023-11-19T08:00:24;101206.50;;;-5.79;100.00
80139;BME280;69467;59.842;17.604;2023-11-19T08:02:49;101218.16;;;-5.80;100.00
80139;BME280;69467;59.842;17.604;2023-11-19T08:05:15;101217.19;;;-5.79;100.00
80139;BME280;69467;59.842;17.604;2023-11-19T08:07:40;101219.00;;;-5.79;100.00
80139;BME280;69467;59.842;17.604;2023-11-19T08:10:06;101219.84;;;-5.79;100.00
80139;BME280;69467;59.842;17.604;2023-11-19T08:12:34;101210.84;;;-5.78;100.00
80139;BME280;69467;59.842;17.604;2023-11-19T08:15:00;101213.25;;;-5.75;100.00
80139;BME280;69467;59.842;17.604;2023-11-19T08:17:25;101221.97;;;-5.83;100.00
80139;BME280;69467;59.842;17.604;2023-11-19T08:19:50;101211.13;;;-5.81;100.00
80139;BME280;69467;59.842;17.604;2023-11-19T08:22:16;101214.78;;;-5.82;100.00
80139;BME280;69467;59.842;17.604;2023-11-19T08:24:42;101216.47;;;-5.81;100.00
80139;BME280;69467;59.842;17.604;2023-11-19T08:27:07;101212.28;;;-5.84;100.00
80139;BME280;69467;59.842;17.604;2023-11-19T08:29:32;101214.06;;;-5.84;100.00
80139;BME280;69467;59.842;17.604;2023-11-19T08:31:59;101203.41;;;-5.84;100.00
80139;BME280;69467;59.842;17.604;2023-11-19T08:34:25;101196.94;;;-5.82;100.00
80139;BME280;69467;59.842;17.604;2023-11-19T08:36:50;101196.13;;;-5.82;100.00
80139;BME280;69467;59.842;17.604;2023-11-19T08:39:18;101200.06;;;-5.76;100.00
80139;BME280;69467;59.842;17.604;2023-11-19T08:41:43;101191.03;;;-5.75;100.00
80139;BME280;69467;59.842;17.604;2023-11-19T08:44:09;101188.81;;;-5.70;100.00
80139;BME280;69467;59.842;17.604;2023-11-19T08:46:34;101198.03;;;-5.64;100.00
80139;BME280;69467;59.842;17.604;2023-11-19T08:48:59;101195.09;;;-5.61;100.00
80139;BME280;69467;59.842;17.604;2023-11-19T08:51:25;101197.34;;;-5.57;100.00
80139;BME280;69467;59.842;17.604;2023-11-19T08:53:50;101194.69;;;-5.57;100.00
80139;BME280;69467;59.842;17.604;2023-11-19T08:56:15;101187.34;;;-5.55;100.00
80139;BME280;69467;59.842;17.604;2023-11-19T08:58:41;101192.53;;;-5.53;100.00
80139;BME280;69467;59.842;17.604;2023-11-19T09:01:06;101190.88;;;-5.54;100.00
80139;BME280;69467;59.842;17.604;2023-11-19T09:03:31;101188.22;;;-5.54;100.00
80139;BME280;69467;59.842;17.604;2023-11-19T09:05:56;101190.56;;;-5.51;100.00
80139;BME280;69467;59.842;17.604;2023-11-19T09:08:22;101188.47;;;-5.57;100.00
80139;BME280;69467;59.842;17.604;2023-11-19T09:10:47;101186.78;;;-5.58;100.00
80139;BME280;69467;59.842;17.604;2023-11-19T09:13:13;101188.47;;;-5.57;100.00
80139;BME280;69467;59.842;17.604;2023-11-19T09:15:38;101183.00;;;-5.56;100.00
80139;BME280;69467;59.842;17.604;2023-11-19T09:18:03;101182.56;;;-5.51;100.00
80139;BME280;69467;59.842;17.604;2023-11-19T09:20:29;101178.19;;;-5.52;100.00
80139;BME280;69467;59.842;17.604;2023-11-19T09:23:02;101170.19;;;-5.52;100.00
80139;BME280;69467;59.842;17.604;2023-11-19T09:25:28;101164.44;;;-5.47;100.00
80139;BME280;69467;59.842;17.604;2023-11-19T09:27:53;101170.00;;;-5.41;100.00
80139;BME280;69467;59.842;17.604;2023-11-19T09:30:18;101174.09;;;-5.37;100.00
80139;BME280;69467;59.842;17.604;2023-11-19T09:32:44;101178.75;;;-5.48;100.00
80139;BME280;69467;59.842;17.604;2023-11-19T09:35:09;101181.00;;;-5.44;100.00
80139;BME280;69467;59.842;17.604;2023-11-19T09:37:38;101184.13;;;-5.58;100.00
80139;BME280;69467;59.842;17.604;2023-11-19T09:40:04;101178.78;;;-5.58;100.00
80139;BME280;69467;59.842;17.604;2023-11-19T09:42:29;101184.13;;;-5.58;100.00
80139;BME280;69467;59.842;17.604;2023-11-19T09:44:57;101177.25;;;-5.61;100.00
80139;BME280;69467;59.842;17.604;2023-11-19T09:47:24;101173.44;;;-5.58;100.00
80139;BME280;69467;59.842;17.604;2023-11-19T09:49:50;101168.84;;;-5.66;100.00
80139;BME280;69467;59.842;17.604;2023-11-19T09:52:16;101163.06;;;-5.61;100.00
80139;BME280;69467;59.842;17.604;2023-11-19T09:54:41;101160.97;;;-5.58;100.00
80139;BME280;69467;59.842;17.604;2023-11-19T09:57:06;101163.16;;;-5.53;100.00
80139;BME280;69467;59.842;17.604;2023-11-19T09:59:33;101165.72;;;-5.52;100.00
80139;BME280;69467;59.842;17.604;2023-11-19T10:01:58;101153.06;;;-5.50;100.00
80139;BME280;69467;59.842;17.604;2023-11-19T10:04:23;101152.63;;;-5.45;100.00
80139;BME280;69467;59.842;17.604;2023-11-19T10:06:51;101147.00;;;-5.42;100.00
80139;BME280;69467;59.842;17.604;2023-11-19T10:09:16;101144.19;;;-5.40;100.00
80139;BME280;69467;59.842;17.604;2023-11-19T10:11:41;101142.34;;;-5.40;100.00
80139;BME280;69467;59.842;17.604;2023-11-19T10:14:07;101140.38;;;-5.38;100.00
80139;BME280;69467;59.842;17.604;2023-11-19T10:16:34;101128.94;;;-5.30;100.00
80139;BME280;69467;59.842;17.604;2023-11-19T10:18:59;101121.47;;;-5.26;100.00
80139;BME280;69467;59.842;17.604;2023-11-19T10:21:24;101116.25;;;-5.18;100.00
80139;BME280;69467;59.842;17.604;2023-11-19T10:23:56;101115.56;;;-5.20;100.00
80139;BME280;69467;59.842;17.604;2023-11-19T10:26:24;101103.88;;;-5.19;100.00
80139;BME280;69467;59.842;17.604;2023-11-19T10:28:50;101111.63;;;-5.16;100.00
80139;BME280;69467;59.842;17.604;2023-11-19T10:31:15;101104.03;;;-5.21;100.00
80139;BME280;69467;59.842;17.604;2023-11-19T10:33:41;101097.84;;;-5.21;100.00
80139;BME280;69467;59.842;17.604;2023-11-19T10:36:08;101086.03;;;-5.19;100.00
80139;BME280;69467;59.842;17.604;2023-11-19T10:38:34;101079.69;;;-5.18;100.00
80139;BME280;69467;59.842;17.604;2023-11-19T10:41:00;101079.84;;;-5.19;100.00
80139;BME280;69467;59.842;17.604;2023-11-19T10:43:25;101086.88;;;-5.18;100.00
80139;BME280;69467;59.842;17.604;2023-11-19T10:45:51;101087.72;;;-5.18;100.00
80139;BME280;69467;59.842;17.604;2023-11-19T10:48:16;101091.34;;;-5.19;100.00
80139;BME280;69467;59.842;17.604;2023-11-19T10:50:42;101091.22;;;-5.17;100.00
80139;BME280;69467;59.842;17.604;2023-11-19T10:53:09;101084.75;;;-5.14;100.00
80139;BME280;69467;59.842;17.604;2023-11-19T10:55:38;101084.91;;;-5.16;100.00
80139;BME280;69467;59.842;17.604;2023-11-19T10:58:06;101084.22;;;-5.18;100.00
80139;BME280;69467;59.842;17.604;2023-11-19T11:00:37;101090.53;;;-5.19;100.00
80139;BME280;69467;59.842;17.604;2023-11-19T11:03:05;101080.56;;;-5.17;100.00
80139;BME280;69467;59.842;17.604;2023-11-19T11:05:33;101071.84;;;-5.19;100.00
80139;BME280;69467;59.842;17.604;2023-11-19T11:08:00;101080.41;;;-5.15;100.00
80139;BME280;69467;59.842;17.604;2023-11-19T11:10:25;101084.06;;;-5.17;100.00
80139;BME280;69467;59.842;17.604;2023-11-19T11:12:51;101083.34;;;-5.19;100.00
80139;BME280;69467;59.842;17.604;2023-11-19T11:15:21;101084.22;;;-5.18;100.00
80139;BME280;69467;59.842;17.604;2023-11-19T11:17:46;101089.72;;;-5.20;100.00
80139;BME280;69467;59.842;17.604;2023-11-19T11:20:12;101091.22;;;-5.17;100.00
80139;BME280;69467;59.842;17.604;2023-11-19T11:23:13;101090.25;;;-5.16;100.00
80139;BME280;69467;59.842;17.604;2023-11-19T11:30:46;101080.25;;;-5.14;100.00
80139;BME280;69467;59.842;17.604;2023-11-19T11:33:21;101079.56;;;-5.16;100.00
80139;BME280;69467;59.842;17.604;2023-11-19T11:35:51;101083.63;;;-5.12;100.00
80139;BME280;69467;59.842;17.604;2023-11-19T11:38:21;101075.59;;;-5.12;100.00
80139;BME280;69467;59.842;17.604;2023-11-19T11:41:13;101079.25;;;-5.13;100.00
80139;BME280;69467;59.842;17.604;2023-11-19T11:43:44;101071.41;;;-5.14;100.00
80139;BME280;69467;59.842;17.604;2023-11-19T11:48:54;101083.22;;;-5.17;100.00
80139;BME280;69467;59.842;17.604;2023-11-19T11:51:29;101078.88;;;-5.18;100.00
80139;BME280;69467;59.842;17.604;2023-11-19T11:54:05;101069.28;;;-5.11;100.00
80139;BME280;69467;59.842;17.604;2023-11-19T11:56:33;101070.81;;;-5.08;100.00
80139;BME280;69467;59.842;17.604;2023-11-19T11:58:58;101068.78;;;-5.06;100.00
80139;BME280;69467;59.842;17.604;2023-11-19T12:01:25;101072.47;;;-5.07;100.00
80139;BME280;69467;59.842;17.604;2023-11-19T12:03:55;101076.38;;;-5.02;100.00
80139;BME280;69467;59.842;17.604;2023-11-19T12:06:21;101078.88;;;-5.00;100.00
80139;BME280;69467;59.842;17.604;2023-11-19T12:08:46;101077.22;;;-5.01;100.00
80139;BME280;69467;59.842;17.604;2023-11-19T12:11:12;101076.81;;;-5.06;100.00
80139;BME280;69467;59.842;17.604;2023-11-19T12:13:53;101075.81;;;-5.05;100.00
80139;BME280;69467;59.842;17.604;2023-11-19T12:16:20;101069.81;;;-5.07;100.00
80139;BME280;69467;59.842;17.604;2023-11-19T12:18:46;101058.97;;;-5.06;100.00
80139;BME280;69467;59.842;17.604;2023-11-19T12:21:12;101056.59;;;-5.09;100.00
80139;BME280;69467;59.842;17.604;2023-11-19T12:23:52;101057.44;;;-5.08;100.00
80139;BME280;69467;59.842;17.604;2023-11-19T12:26:30;101051.72;;;-5.13;100.00
80139;BME280;69467;59.842;17.604;2023-11-19T12:28:57;101053.84;;;-5.17;100.00
80139;BME280;69467;59.842;17.604;2023-11-19T12:31:22;101042.47;;;-5.19;100.00
80139;BME280;69467;59.842;17.604;2023-11-19T12:33:47;101029.81;;;-5.17;100.00